sensor_id;sensor_type;location;lat;lon;timestamp;P1;durP1;ratioP1;P2;durP2;ratioP2
19919;SDS011;10122;50.074;19.920;2023-05-10T00:00:54;14.32;;;7.53;;
19919;SDS011;10122;50.074;19.920;2023-05-10T00:03:20;15.48;;;7.55;;
19919;SDS011;10122;50.074;19.920;2023-05-10T00:05:46;13.98;;;7.13;;
19919;SDS011;10122;50.074;19.920;2023-05-10T00:08:12;14.13;;;6.85;;
19919;SDS011;10122;50.074;19.920;2023-05-10T00:10:38;12.15;;;6.63;;
19919;SDS011;10122;50.074;19.920;2023-05-10T00:13:04;13.82;;;6.38;;
19919;SDS011;10122;50.074;19.920;2023-05-10T00:15:30;11.60;;;6.30;;
19919;SDS011;10122;50.074;19.920;2023-05-10T00:17:57;12.20;;;6.57;;
19919;SDS011;10122;50.074;19.920;2023-05-10T00:20:23;10.57;;;6.30;;
19919;SDS011;10122;50.074;19.920;2023-05-10T00:22:50;11.35;;;6.05;;
19919;SDS011;10122;50.074;19.920;2023-05-10T00:25:16;9.85;;;5.80;;
19919;SDS011;10122;50.074;19.920;2023-05-10T00:27:42;12.10;;;5.75;;
19919;SDS011;10122;50.074;19.920;2023-05-10T00:30:08;8.98;;;5.40;;
19919;SDS011;10122;50.074;19.920;2023-05-10T00:32:34;9.73;;;6.10;;
19919;SDS011;10122;50.074;19.920;2023-05-10T00:35:00;9.57;;;6.15;;
19919;SDS011;10122;50.074;19.920;2023-05-10T00:37:26;12.35;;;6.28;;
19919;SDS011;10122;50.074;19.920;2023-05-10T00:39:52;10.10;;;5.90;;
19919;SDS011;10122;50.074;19.920;2023-05-10T00:42:18;12.05;;;5.80;;
19919;SDS011;10122;50.074;19.920;2023-05-10T00:44:44;12.05;;;6.13;;
19919;SDS011;10122;50.074;19.920;2023-05-10T00:47:11;12.02;;;5.43;;
19919;SDS011;10122;50.074;19.920;2023-05-10T00:49:37;11.63;;;6.45;;
19919;SDS011;10122;50.074;19.920;2023-05-10T00:52:03;8.98;;;5.43;;
19919;SDS011;10122;50.074;19.920;2023-05-10T00:54:30;11.20;;;5.65;;
19919;SDS011;10122;50.074;19.920;2023-05-10T00:56:56;12.30;;;5.82;;
19919;SDS011;10122;50.074;19.920;2023-05-10T00:59:22;11.63;;;6.07;;
19919;SDS011;10122;50.074;19.920;2023-05-10T01:01:48;13.18;;;5.80;;
19919;SDS011;10122;50.074;19.920;2023-05-10T01:04:14;10.07;;;5.70;;
19919;SDS011;10122;50.074;19.920;2023-05-10T01:06:41;9.60;;;5.70;;
19919;SDS011;10122;50.074;19.920;2023-05-10T01:09:07;11.25;;;6.05;;
19919;SDS011;10122;50.074;19.920;2023-05-10T01:11:34;10.38;;;5.50;;
19919;SDS011;10122;50.074;19.920;2023-05-10T01:14:00;9.32;;;5.60;;
19919;SDS011;10122;50.074;19.920;2023-05-10T01:16:27;10.50;;;5.93;;
19919;SDS011;10122;50.074;19.920;2023-05-10T01:18:55;9.95;;;5.82;;
19919;SDS011;10122;50.074;19.920;2023-05-10T01:27:14;9.18;;;5.45;;
19919;SDS011;10122;50.074;19.920;2023-05-10T01:35:16;9.90;;;5.53;;
19919;SDS011;10122;50.074;19.920;2023-05-10T01:37:46;9.75;;;5.50;;
19919;SDS011;10122;50.074;19.920;2023-05-10T01:42:43;9.63;;;4.75;;
19919;SDS011;10122;50.074;19.920;2023-05-10T01:47:39;9.95;;;4.78;;
19919;SDS011;10122;50.074;19.920;2023-05-10T01:50:06;10.15;;;5.43;;
19919;SDS011;10122;50.074;19.920;2023-05-10T01:52:41;11.18;;;5.28;;
19919;SDS011;10122;50.074;19.920;2023-05-10T01:55:09;9.80;;;5.50;;
19919;SDS011;10122;50.074;19.920;2023-05-10T01:57:37;12.07;;;5.57;;
19919;SDS011;10122;50.074;19.920;2023-05-10T02:00:04;9.07;;;5.32;;
19919;SDS011;10122;50.074;19.920;2023-05-10T02:02:37;8.38;;;5.20;;
19919;SDS011;10122;50.074;19.920;2023-05-10T02:05:05;8.05;;;5.10;;
19919;SDS011;10122;50.074;19.920;2023-05-10T02:07:32;9.23;;;5.50;;
19919;SDS011;10122;50.074;19.920;2023-05-10T02:10:00;9.02;;;4.90;;
19919;SDS011;10122;50.074;19.920;2023-05-10T02:12:27;7.03;;;4.95;;
19919;SDS011;10122;50.074;19.920;2023-05-10T02:14:54;8.57;;;5.07;;
19919;SDS011;10122;50.074;19.920;2023-05-10T02:17:20;7.50;;;4.95;;
19919;SDS011;10122;50.074;19.920;2023-05-10T02:19:47;9.13;;;4.75;;
19919;SDS011;10122;50.074;19.920;2023-05-10T02:22:13;7.53;;;4.80;;
19919;SDS011;10122;50.074;19.920;2023-05-10T02:24:41;10.68;;;5.15;;
19919;SDS011;10122;50.074;19.920;2023-05-10T02:27:07;8.15;;;4.82;;
19919;SDS011;10122;50.074;19.920;2023-05-10T02:29:34;9.82;;;5.28;;
19919;SDS011;10122;50.074;19.920;2023-05-10T02:32:01;11.27;;;5.60;;
19919;SDS011;10122;50.074;19.920;2023-05-10T02:34:27;9.52;;;5.30;;
19919;SDS011;10122;50.074;19.920;2023-05-10T02:36:54;8.15;;;5.00;;
19919;SDS011;10122;50.074;19.920;2023-05-10T02:39:21;7.28;;;5.05;;
19919;SDS011;10122;50.074;19.920;2023-05-10T02:41:48;8.77;;;4.97;;
19919;SDS011;10122;50.074;19.920;2023-05-10T02:44:15;6.75;;;5.22;;
19919;SDS011;10122;50.074;19.920;2023-05-10T02:46:42;8.43;;;4.97;;
19919;SDS011;10122;50.074;19.920;2023-05-10T02:49:08;8.20;;;5.00;;
19919;SDS011;10122;50.074;19.920;2023-05-10T02:51:35;7.63;;;4.97;;
19919;SDS011;10122;50.074;19.920;2023-05-10T02:54:04;8.60;;;5.07;;
19919;SDS011;10122;50.074;19.920;2023-05-10T02:56:33;7.63;;;4.70;;
19919;SDS011;10122;50.074;19.920;2023-05-10T02:59:00;9.32;;;4.90;;
19919;SDS011;10122;50.074;19.920;2023-05-10T03:01:26;9.57;;;4.88;;
19919;SDS011;10122;50.074;19.920;2023-05-10T03:03:52;8.23;;;4.75;;
19919;SDS011;10122;50.074;19.920;2023-05-10T03:06:19;9.35;;;5.00;;
19919;SDS011;10122;50.074;19.920;2023-05-10T03:08:45;8.70;;;5.28;;
19919;SDS011;10122;50.074;19.920;2023-05-10T03:14:12;7.20;;;4.70;;
19919;SDS011;10122;50.074;19.920;2023-05-10T03:16:41;7.43;;;4.60;;
19919;SDS011;10122;50.074;19.920;2023-05-10T03:19:17;7.65;;;4.57;;
19919;SDS011;10122;50.074;19.920;2023-05-10T03:21:47;9.02;;;5.25;;
19919;SDS011;10122;50.074;19.920;2023-05-10T03:24:16;7.10;;;4.80;;
19919;SDS011;10122;50.074;19.920;2023-05-10T03:26:43;10.07;;;4.90;;
19919;SDS011;10122;50.074;19.920;2023-05-10T03:29:11;9.00;;;4.32;;
19919;SDS011;10122;50.074;19.920;2023-05-10T03:31:38;8.18;;;4.53;;
19919;SDS011;10122;50.074;19.920;2023-05-10T03:34:04;7.45;;;4.65;;
19919;SDS011;10122;50.074;19.920;2023-05-10T03:36:31;7.45;;;4.65;;
19919;SDS011;10122;50.074;19.920;2023-05-10T03:38:57;10.63;;;5.00;;
19919;SDS011;10122;50.074;19.920;2023-05-10T03:41:23;8.18;;;4.78;;
19919;SDS011;10122;50.074;19.920;2023-05-10T03:43:50;7.50;;;4.57;;
19919;SDS011;10122;50.074;19.920;2023-05-10T03:46:16;8.68;;;4.70;;
19919;SDS011;10122;50.074;19.920;2023-05-10T03:48:42;8.98;;;4.90;;
19919;SDS011;10122;50.074;19.920;2023-05-10T03:51:08;10.25;;;5.13;;
19919;SDS011;10122;50.074;19.920;2023-05-10T03:53:34;9.18;;;5.05;;
19919;SDS011;10122;50.074;19.920;2023-05-10T03:56:00;8.73;;;4.70;;
19919;SDS011;10122;50.074;19.920;2023-05-10T03:58:26;9.50;;;5.40;;
19919;SDS011;10122;50.074;19.920;2023-05-10T04:00:53;8.07;;;5.03;;
19919;SDS011;10122;50.074;19.920;2023-05-10T04:03:19;8.73;;;4.57;;
19919;SDS011;10122;50.074;19.920;2023-05-10T04:05:45;9.98;;;5.30;;
19919;SDS011;10122;50.074;19.920;2023-05-10T04:08:11;10.48;;;5.07;;
19919;SDS011;10122;50.074;19.920;2023-05-10T04:10:37;10.88;;;5.13;;
19919;SDS011;10122;50.074;19.920;2023-05-10T04:13:03;9.00;;;4.57;;
19919;SDS011;10122;50.074;19.920;2023-05-10T04:15:29;8.25;;;4.80;;
19919;SDS011;10122;50.074;19.920;2023-05-10T04:17:55;9.45;;;4.80;;
19919;SDS011;10122;50.074;19.920;2023-05-10T04:20:21;7.90;;;5.18;;
19919;SDS011;10122;50.074;19.920;2023-05-10T04:22:47;9.73;;;4.85;;
19919;SDS011;10122;50.074;19.920;2023-05-10T04:25:13;7.43;;;4.70;;
19919;SDS011;10122;50.074;19.920;2023-05-10T04:27:39;8.93;;;4.85;;
19919;SDS011;10122;50.074;19.920;2023-05-10T04:30:06;9.30;;;5.13;;
19919;SDS011;10122;50.074;19.920;2023-05-10T04:32:32;9.35;;;4.90;;
19919;SDS011;10122;50.074;19.920;2023-05-10T04:34:58;7.97;;;4.80;;
19919;SDS011;10122;50.074;19.920;2023-05-10T04:37:24;9.85;;;4.95;;
19919;SDS011;10122;50.074;19.920;2023-05-10T04:39:50;12.68;;;5.15;;
19919;SDS011;10122;50.074;19.920;2023-05-10T04:42:16;10.90;;;5.63;;
19919;SDS011;10122;50.074;19.920;2023-05-10T04:44:42;8.85;;;5.20;;
19919;SDS011;10122;50.074;19.920;2023-05-10T04:47:08;9.13;;;4.80;;
19919;SDS011;10122;50.074;19.920;2023-05-10T04:49:34;9.25;;;5.28;;
19919;SDS011;10122;50.074;19.920;2023-05-10T04:52:00;9.95;;;5.20;;
19919;SDS011;10122;50.074;19.920;2023-05-10T04:54:26;12.15;;;5.10;;
19919;SDS011;10122;50.074;19.920;2023-05-10T04:56:52;8.02;;;5.40;;
19919;SDS011;10122;50.074;19.920;2023-05-10T04:59:18;10.07;;;5.13;;
19919;SDS011;10122;50.074;19.920;2023-05-10T05:01:44;11.10;;;5.30;;
19919;SDS011;10122;50.074;19.920;2023-05-10T05:04:10;7.30;;;4.63;;
19919;SDS011;10122;50.074;19.920;2023-05-10T05:06:37;9.63;;;5.30;;
19919;SDS011;10122;50.074;19.920;2023-05-10T05:09:03;8.90;;;5.72;;
19919;SDS011;10122;50.074;19.920;2023-05-10T05:11:29;13.90;;;5.95;;
19919;SDS011;10122;50.074;19.920;2023-05-10T05:13:55;10.32;;;5.78;;
19919;SDS011;10122;50.074;19.920;2023-05-10T05:16:21;12.52;;;5.35;;
19919;SDS011;10122;50.074;19.920;2023-05-10T05:18:47;11.90;;;5.88;;
19919;SDS011;10122;50.074;19.920;2023-05-10T05:21:13;8.90;;;4.95;;
19919;SDS011;10122;50.074;19.920;2023-05-10T05:23:40;11.48;;;6.20;;
19919;SDS011;10122;50.074;19.920;2023-05-10T05:26:06;9.90;;;5.85;;
19919;SDS011;10122;50.074;19.920;2023-05-10T05:28:32;11.05;;;5.80;;
19919;SDS011;10122;50.074;19.920;2023-05-10T05:31:02;9.73;;;5.50;;
19919;SDS011;10122;50.074;19.920;2023-05-10T05:33:28;11.50;;;6.22;;
19919;SDS011;10122;50.074;19.920;2023-05-10T05:35:54;9.88;;;6.13;;
19919;SDS011;10122;50.074;19.920;2023-05-10T05:38:20;11.20;;;6.25;;
19919;SDS011;10122;50.074;19.920;2023-05-10T05:40:46;13.10;;;6.40;;
19919;SDS011;10122;50.074;19.920;2023-05-10T05:43:12;12.07;;;6.15;;
19919;SDS011;10122;50.074;19.920;2023-05-10T05:45:38;13.63;;;6.90;;
19919;SDS011;10122;50.074;19.920;2023-05-10T05:48:04;11.38;;;6.22;;
19919;SDS011;10122;50.074;19.920;2023-05-10T05:50:30;11.18;;;6.50;;
19919;SDS011;10122;50.074;19.920;2023-05-10T05:52:56;11.85;;;6.05;;
19919;SDS011;10122;50.074;19.920;2023-05-10T05:55:22;11.65;;;6.30;;
19919;SDS011;10122;50.074;19.920;2023-05-10T05:57:49;13.15;;;6.43;;
19919;SDS011;10122;50.074;19.920;2023-05-10T06:00:15;14.75;;;6.65;;
19919;SDS011;10122;50.074;19.920;2023-05-10T06:02:41;17.77;;;7.10;;
19919;SDS011;10122;50.074;19.920;2023-05-10T06:05:08;11.63;;;6.75;;
19919;SDS011;10122;50.074;19.920;2023-05-10T06:07:34;12.75;;;7.15;;
19919;SDS011;10122;50.074;19.920;2023-05-10T06:10:00;14.50;;;6.90;;
19919;SDS011;10122;50.074;19.920;2023-05-10T06:12:27;12.60;;;6.63;;
19919;SDS011;10122;50.074;19.920;2023-05-10T06:14:53;17.25;;;6.45;;
19919;SDS011;10122;50.074;19.920;2023-05-10T06:17:19;12.88;;;6.53;;
19919;SDS011;10122;50.074;19.920;2023-05-10T06:19:46;15.40;;;6.65;;
19919;SDS011;10122;50.074;19.920;2023-05-10T06:22:12;13.55;;;6.43;;
19919;SDS011;10122;50.074;19.920;2023-05-10T06:24:38;13.23;;;6.88;;
19919;SDS011;10122;50.074;19.920;2023-05-10T06:27:05;13.45;;;6.78;;
19919;SDS011;10122;50.074;19.920;2023-05-10T06:29:31;13.40;;;6.57;;
19919;SDS011;10122;50.074;19.920;2023-05-10T06:31:57;10.27;;;5.60;;
19919;SDS011;10122;50.074;19.920;2023-05-10T06:34:24;12.63;;;6.53;;
19919;SDS011;10122;50.074;19.920;2023-05-10T06:36:50;10.90;;;6.03;;
19919;SDS011;10122;50.074;19.920;2023-05-10T06:39:16;10.13;;;6.00;;
19919;SDS011;10122;50.074;19.920;2023-05-10T06:41:43;14.05;;;6.57;;
19919;SDS011;10122;50.074;19.920;2023-05-10T06:44:10;16.70;;;6.63;;
19919;SDS011;10122;50.074;19.920;2023-05-10T06:46:36;12.93;;;6.30;;
19919;SDS011;10122;50.074;19.920;2023-05-10T06:49:02;12.57;;;5.53;;
19919;SDS011;10122;50.074;19.920;2023-05-10T06:51:28;7.05;;;4.85;;
19919;SDS011;10122;50.074;19.920;2023-05-10T06:53:54;11.45;;;5.90;;
19919;SDS011;10122;50.074;19.920;2023-05-10T06:56:20;9.52;;;5.47;;
19919;SDS011;10122;50.074;19.920;2023-05-10T06:58:47;13.10;;;5.95;;
19919;SDS011;10122;50.074;19.920;2023-05-10T07:01:13;13.75;;;5.30;;
19919;SDS011;10122;50.074;19.920;2023-05-10T07:03:39;11.48;;;5.53;;
19919;SDS011;10122;50.074;19.920;2023-05-10T07:06:05;11.82;;;4.55;;
19919;SDS011;10122;50.074;19.920;2023-05-10T07:08:32;7.60;;;4.63;;
19919;SDS011;10122;50.074;19.920;2023-05-10T07:10:59;7.85;;;4.55;;
19919;SDS011;10122;50.074;19.920;2023-05-10T07:13:25;7.82;;;4.57;;
19919;SDS011;10122;50.074;19.920;2023-05-10T07:15:51;6.05;;;4.47;;
19919;SDS011;10122;50.074;19.920;2023-05-10T07:18:17;7.43;;;4.88;;
19919;SDS011;10122;50.074;19.920;2023-05-10T07:20:43;7.03;;;4.35;;
19919;SDS011;10122;50.074;19.920;2023-05-10T07:23:09;9.50;;;5.35;;
19919;SDS011;10122;50.074;19.920;2023-05-10T07:25:35;9.52;;;4.70;;
19919;SDS011;10122;50.074;19.920;2023-05-10T07:28:02;7.47;;;4.53;;
19919;SDS011;10122;50.074;19.920;2023-05-10T07:30:28;11.57;;;5.78;;
19919;SDS011;10122;50.074;19.920;2023-05-10T07:32:54;7.35;;;4.53;;
19919;SDS011;10122;50.074;19.920;2023-05-10T07:35:20;10.68;;;5.13;;
19919;SDS011;10122;50.074;19.920;2023-05-10T07:37:46;9.80;;;5.70;;
19919;SDS011;10122;50.074;19.920;2023-05-10T07:40:12;11.45;;;5.55;;
19919;SDS011;10122;50.074;19.920;2023-05-10T07:42:38;9.00;;;5.25;;
19919;SDS011;10122;50.074;19.920;2023-05-10T07:45:05;14.73;;;5.80;;
19919;SDS011;10122;50.074;19.920;2023-05-10T07:47:31;8.90;;;5.03;;
19919;SDS011;10122;50.074;19.920;2023-05-10T07:49:57;8.48;;;4.93;;
19919;SDS011;10122;50.074;19.920;2023-05-10T07:52:24;7.22;;;4.70;;
19919;SDS011;10122;50.074;19.920;2023-05-10T07:54:50;9.32;;;4.80;;
19919;SDS011;10122;50.074;19.920;2023-05-10T07:57:17;7.07;;;4.47;;
19919;SDS011;10122;50.074;19.920;2023-05-10T07:59:43;10.80;;;4.78;;
19919;SDS011;10122;50.074;19.920;2023-05-10T08:02:10;11.88;;;4.88;;
19919;SDS011;10122;50.074;19.920;2023-05-10T08:04:36;7.30;;;4.53;;
19919;SDS011;10122;50.074;19.920;2023-05-10T08:07:02;8.82;;;4.55;;
19919;SDS011;10122;50.074;19.920;2023-05-10T08:09:28;8.00;;;4.25;;
19919;SDS011;10122;50.074;19.920;2023-05-10T08:11:54;7.32;;;3.72;;
19919;SDS011;10122;50.074;19.920;2023-05-10T08:14:20;6.28;;;4.22;;
19919;SDS011;10122;50.074;19.920;2023-05-10T08:16:46;6.32;;;4.13;;
19919;SDS011;10122;50.074;19.920;2023-05-10T08:19:12;5.85;;;4.28;;
19919;SDS011;10122;50.074;19.920;2023-05-10T08:21:39;7.07;;;4.05;;
19919;SDS011;10122;50.074;19.920;2023-05-10T08:24:07;6.88;;;3.95;;
19919;SDS011;10122;50.074;19.920;2023-05-10T08:26:33;4.55;;;3.00;;
19919;SDS011;10122;50.074;19.920;2023-05-10T08:28:59;4.40;;;3.63;;
19919;SDS011;10122;50.074;19.920;2023-05-10T08:31:25;7.03;;;3.47;;
19919;SDS011;10122;50.074;19.920;2023-05-10T08:33:51;4.18;;;3.10;;
19919;SDS011;10122;50.074;19.920;2023-05-10T08:36:17;3.90;;;3.22;;
19919;SDS011;10122;50.074;19.920;2023-05-10T08:38:55;3.85;;;2.90;;
19919;SDS011;10122;50.074;19.920;2023-05-10T08:41:22;5.50;;;3.10;;
19919;SDS011;10122;50.074;19.920;2023-05-10T08:43:52;4.97;;;3.05;;
19919;SDS011;10122;50.074;19.920;2023-05-10T08:46:18;5.32;;;3.15;;
19919;SDS011;10122;50.074;19.920;2023-05-10T08:48:45;4.45;;;3.00;;
19919;SDS011;10122;50.074;19.920;2023-05-10T08:51:18;4.68;;;2.70;;
19919;SDS011;10122;50.074;19.920;2023-05-10T08:53:46;4.40;;;3.25;;
19919;SDS011;10122;50.074;19.920;2023-05-10T08:56:22;4.65;;;2.97;;
19919;SDS011;10122;50.074;19.920;2023-05-10T08:58:49;4.30;;;2.75;;
19919;SDS011;10122;50.074;19.920;2023-05-10T09:01:15;3.85;;;3.00;;
19919;SDS011;10122;50.074;19.920;2023-05-10T09:03:42;3.78;;;2.70;;
19919;SDS011;10122;50.074;19.920;2023-05-10T09:06:08;3.45;;;2.75;;
19919;SDS011;10122;50.074;19.920;2023-05-10T09:08:34;5.18;;;3.00;;
19919;SDS011;10122;50.074;19.920;2023-05-10T09:11:02;5.25;;;3.30;;
19919;SDS011;10122;50.074;19.920;2023-05-10T09:13:28;3.90;;;2.70;;
19919;SDS011;10122;50.074;19.920;2023-05-10T09:15:54;6.18;;;2.70;;
19919;SDS011;10122;50.074;19.920;2023-05-10T09:18:20;4.30;;;2.63;;
19919;SDS011;10122;50.074;19.920;2023-05-10T09:20:47;5.40;;;2.67;;
19919;SDS011;10122;50.074;19.920;2023-05-10T09:23:13;4.95;;;2.80;;
19919;SDS011;10122;50.074;19.920;2023-05-10T09:25:41;3.95;;;2.45;;
19919;SDS011;10122;50.074;19.920;2023-05-10T09:28:07;18.40;;;5.93;;
19919;SDS011;10122;50.074;19.920;2023-05-10T09:30:33;2.40;;;1.92;;
19919;SDS011;10122;50.074;19.920;2023-05-10T09:33:00;4.25;;;2.10;;
19919;SDS011;10122;50.074;19.920;2023-05-10T09:35:28;5.72;;;2.40;;
19919;SDS011;10122;50.074;19.920;2023-05-10T09:37:56;4.32;;;2.50;;
19919;SDS011;10122;50.074;19.920;2023-05-10T09:40:23;8.68;;;3.10;;
19919;SDS011;10122;50.074;19.920;2023-05-10T09:43:00;4.18;;;2.47;;
19919;SDS011;10122;50.074;19.920;2023-05-10T09:45:35;3.25;;;2.20;;
19919;SDS011;10122;50.074;19.920;2023-05-10T09:48:01;4.57;;;2.40;;
19919;SDS011;10122;50.074;19.920;2023-05-10T09:50:28;3.03;;;2.30;;
19919;SDS011;10122;50.074;19.920;2023-05-10T09:55:24;4.75;;;2.60;;
19919;SDS011;10122;50.074;19.920;2023-05-10T09:57:58;6.70;;;3.08;;
19919;SDS011;10122;50.074;19.920;2023-05-10T10:00:24;4.18;;;2.35;;
19919;SDS011;10122;50.074;19.920;2023-05-10T10:02:54;4.38;;;2.10;;
19919;SDS011;10122;50.074;19.920;2023-05-10T10:05:20;3.20;;;2.50;;
19919;SDS011;10122;50.074;19.920;2023-05-10T10:07:46;3.90;;;2.22;;
19919;SDS011;10122;50.074;19.920;2023-05-10T10:10:14;2.20;;;1.67;;
19919;SDS011;10122;50.074;19.920;2023-05-10T10:12:40;4.70;;;2.30;;
19919;SDS011;10122;50.074;19.920;2023-05-10T10:15:07;2.72;;;2.20;;
19919;SDS011;10122;50.074;19.920;2023-05-10T10:17:35;2.78;;;2.22;;
19919;SDS011;10122;50.074;19.920;2023-05-10T10:20:02;5.47;;;2.50;;
19919;SDS011;10122;50.074;19.920;2023-05-10T10:22:29;4.10;;;2.30;;
19919;SDS011;10122;50.074;19.920;2023-05-10T10:24:55;3.30;;;2.22;;
19919;SDS011;10122;50.074;19.920;2023-05-10T10:30:02;2.72;;;2.38;;
19919;SDS011;10122;50.074;19.920;2023-05-10T10:34:55;3.70;;;2.28;;
19919;SDS011;10122;50.074;19.920;2023-05-10T10:37:21;3.03;;;1.90;;
19919;SDS011;10122;50.074;19.920;2023-05-10T10:39:48;3.17;;;2.15;;
19919;SDS011;10122;50.074;19.920;2023-05-10T10:42:15;3.50;;;2.40;;
19919;SDS011;10122;50.074;19.920;2023-05-10T10:45:13;2.47;;;1.98;;
19919;SDS011;10122;50.074;19.920;2023-05-10T10:47:39;5.28;;;2.40;;
19919;SDS011;10122;50.074;19.920;2023-05-10T10:50:06;3.55;;;2.50;;
19919;SDS011;10122;50.074;19.920;2023-05-10T10:52:38;3.63;;;2.20;;
19919;SDS011;10122;50.074;19.920;2023-05-10T10:57:32;3.78;;;2.10;;
19919;SDS011;10122;50.074;19.920;2023-05-10T11:02:46;3.03;;;2.10;;
19919;SDS011;10122;50.074;19.920;2023-05-10T11:07:55;2.60;;;2.10;;
19919;SDS011;10122;50.074;19.920;2023-05-10T11:10:21;2.40;;;1.98;;
19919;SDS011;10122;50.074;19.920;2023-05-10T11:12:51;2.97;;;2.10;;
19919;SDS011;10122;50.074;19.920;2023-05-10T11:15:19;2.95;;;2.20;;
19919;SDS011;10122;50.074;19.920;2023-05-10T11:17:45;3.53;;;2.20;;
19919;SDS011;10122;50.074;19.920;2023-05-10T11:20:16;2.95;;;2.20;;
19919;SDS011;10122;50.074;19.920;2023-05-10T11:22:51;4.55;;;2.17;;
19919;SDS011;10122;50.074;19.920;2023-05-10T11:25:18;3.83;;;2.25;;
19919;SDS011;10122;50.074;19.920;2023-05-10T11:27:44;4.20;;;2.25;;
19919;SDS011;10122;50.074;19.920;2023-05-10T11:30:10;3.63;;;2.42;;
19919;SDS011;10122;50.074;19.920;2023-05-10T11:32:37;2.80;;;1.98;;
19919;SDS011;10122;50.074;19.920;2023-05-10T11:35:07;2.15;;;1.80;;
19919;SDS011;10122;50.074;19.920;2023-05-10T11:37:33;3.20;;;2.20;;
19919;SDS011;10122;50.074;19.920;2023-05-10T11:40:00;4.50;;;2.47;;
19919;SDS011;10122;50.074;19.920;2023-05-10T11:42:27;3.78;;;2.20;;
19919;SDS011;10122;50.074;19.920;2023-05-10T11:44:54;3.35;;;2.10;;
19919;SDS011;10122;50.074;19.920;2023-05-10T11:47:20;5.65;;;2.83;;
19919;SDS011;10122;50.074;19.920;2023-05-10T11:49:46;3.38;;;2.47;;
19919;SDS011;10122;50.074;19.920;2023-05-10T11:52:12;2.97;;;2.40;;
19919;SDS011;10122;50.074;19.920;2023-05-10T11:54:45;3.42;;;2.35;;
19919;SDS011;10122;50.074;19.920;2023-05-10T11:57:11;2.88;;;2.15;;
19919;SDS011;10122;50.074;19.920;2023-05-10T11:59:37;4.25;;;2.40;;
19919;SDS011;10122;50.074;19.920;2023-05-10T12:02:03;2.97;;;2.38;;
19919;SDS011;10122;50.074;19.920;2023-05-10T12:04:30;2.92;;;2.30;;
19919;SDS011;10122;50.074;19.920;2023-05-10T12:06:56;2.90;;;2.30;;
19919;SDS011;10122;50.074;19.920;2023-05-10T12:09:22;3.13;;;2.50;;
19919;SDS011;10122;50.074;19.920;2023-05-10T12:11:48;4.00;;;2.20;;
19919;SDS011;10122;50.074;19.920;2023-05-10T12:14:14;3.70;;;2.25;;
19919;SDS011;10122;50.074;19.920;2023-05-10T12:16:42;4.60;;;2.33;;
19919;SDS011;10122;50.074;19.920;2023-05-10T12:19:08;4.90;;;2.17;;
19919;SDS011;10122;50.074;19.920;2023-05-10T12:21:34;3.20;;;2.30;;
19919;SDS011;10122;50.074;19.920;2023-05-10T12:24:02;3.13;;;2.38;;
19919;SDS011;10122;50.074;19.920;2023-05-10T12:26:28;4.47;;;3.00;;
19919;SDS011;10122;50.074;19.920;2023-05-10T12:29:01;4.47;;;2.30;;
19919;SDS011;10122;50.074;19.920;2023-05-10T12:31:49;4.05;;;2.22;;
19919;SDS011;10122;50.074;19.920;2023-05-10T12:36:53;6.38;;;2.72;;
19919;SDS011;10122;50.074;19.920;2023-05-10T12:39:19;3.88;;;2.42;;
19919;SDS011;10122;50.074;19.920;2023-05-10T12:41:46;3.55;;;2.42;;
19919;SDS011;10122;50.074;19.920;2023-05-10T12:44:12;4.68;;;2.85;;
19919;SDS011;10122;50.074;19.920;2023-05-10T12:46:38;3.83;;;2.40;;
19919;SDS011;10122;50.074;19.920;2023-05-10T12:49:04;3.05;;;2.40;;
19919;SDS011;10122;50.074;19.920;2023-05-10T12:51:30;4.15;;;2.33;;
19919;SDS011;10122;50.074;19.920;2023-05-10T12:53:56;2.78;;;2.17;;
19919;SDS011;10122;50.074;19.920;2023-05-10T12:56:22;4.65;;;2.58;;
19919;SDS011;10122;50.074;19.920;2023-05-10T12:58:48;3.78;;;2.30;;
19919;SDS011;10122;50.074;19.920;2023-05-10T13:01:14;4.32;;;2.30;;
19919;SDS011;10122;50.074;19.920;2023-05-10T13:03:41;4.63;;;2.33;;
19919;SDS011;10122;50.074;19.920;2023-05-10T13:06:08;4.60;;;2.33;;
19919;SDS011;10122;50.074;19.920;2023-05-10T13:08:34;3.08;;;2.17;;
19919;SDS011;10122;50.074;19.920;2023-05-10T13:11:01;3.60;;;2.55;;
19919;SDS011;10122;50.074;19.920;2023-05-10T13:13:27;2.60;;;2.40;;
19919;SDS011;10122;50.074;19.920;2023-05-10T13:15:55;2.90;;;1.85;;
19919;SDS011;10122;50.074;19.920;2023-05-10T13:18:21;4.55;;;2.38;;
19919;SDS011;10122;50.074;19.920;2023-05-10T13:20:47;5.18;;;2.83;;
19919;SDS011;10122;50.074;19.920;2023-05-10T13:23:14;5.75;;;2.92;;
19919;SDS011;10122;50.074;19.920;2023-05-10T13:25:40;4.53;;;2.53;;
19919;SDS011;10122;50.074;19.920;2023-05-10T13:28:06;5.18;;;2.47;;
19919;SDS011;10122;50.074;19.920;2023-05-10T13:30:32;2.90;;;2.08;;
19919;SDS011;10122;50.074;19.920;2023-05-10T13:32:59;5.90;;;2.33;;
19919;SDS011;10122;50.074;19.920;2023-05-10T13:35:27;2.75;;;2.13;;
19919;SDS011;10122;50.074;19.920;2023-05-10T13:37:53;3.75;;;2.03;;
19919;SDS011;10122;50.074;19.920;2023-05-10T13:40:22;2.17;;;1.90;;
19919;SDS011;10122;50.074;19.920;2023-05-10T13:42:48;4.25;;;2.28;;
19919;SDS011;10122;50.074;19.920;2023-05-10T13:45:15;3.60;;;1.95;;
19919;SDS011;10122;50.074;19.920;2023-05-10T13:47:41;3.35;;;2.38;;
19919;SDS011;10122;50.074;19.920;2023-05-10T13:50:07;3.40;;;2.30;;
19919;SDS011;10122;50.074;19.920;2023-05-10T13:52:33;3.53;;;2.50;;
19919;SDS011;10122;50.074;19.920;2023-05-10T13:55:00;3.85;;;2.28;;
19919;SDS011;10122;50.074;19.920;2023-05-10T13:57:26;3.97;;;2.30;;
19919;SDS011;10122;50.074;19.920;2023-05-10T13:59:53;3.45;;;2.25;;
19919;SDS011;10122;50.074;19.920;2023-05-10T14:02:20;2.47;;;2.10;;
19919;SDS011;10122;50.074;19.920;2023-05-10T14:04:46;3.70;;;2.05;;
19919;SDS011;10122;50.074;19.920;2023-05-10T14:07:13;3.92;;;2.25;;
19919;SDS011;10122;50.074;19.920;2023-05-10T14:09:39;3.08;;;2.22;;
19919;SDS011;10122;50.074;19.920;2023-05-10T14:12:05;3.85;;;2.33;;
19919;SDS011;10122;50.074;19.920;2023-05-10T14:14:31;3.47;;;2.47;;
19919;SDS011;10122;50.074;19.920;2023-05-10T14:16:57;4.50;;;2.40;;
19919;SDS011;10122;50.074;19.920;2023-05-10T14:19:24;3.78;;;2.45;;
19919;SDS011;10122;50.074;19.920;2023-05-10T14:21:52;2.72;;;2.20;;
19919;SDS011;10122;50.074;19.920;2023-05-10T14:24:18;3.10;;;2.28;;
19919;SDS011;10122;50.074;19.920;2023-05-10T14:26:44;2.92;;;2.30;;
19919;SDS011;10122;50.074;19.920;2023-05-10T14:29:10;2.55;;;1.80;;
19919;SDS011;10122;50.074;19.920;2023-05-10T14:31:36;3.13;;;2.05;;
19919;SDS011;10122;50.074;19.920;2023-05-10T14:34:02;2.97;;;2.30;;
19919;SDS011;10122;50.074;19.920;2023-05-10T14:36:28;2.83;;;2.22;;
19919;SDS011;10122;50.074;19.920;2023-05-10T14:38:55;3.22;;;2.53;;
19919;SDS011;10122;50.074;19.920;2023-05-10T14:41:21;5.03;;;2.33;;
19919;SDS011;10122;50.074;19.920;2023-05-10T14:43:47;2.78;;;2.20;;
19919;SDS011;10122;50.074;19.920;2023-05-10T14:46:14;3.55;;;2.10;;
19919;SDS011;10122;50.074;19.920;2023-05-10T14:48:49;2.72;;;2.10;;
19919;SDS011;10122;50.074;19.920;2023-05-10T14:51:15;2.38;;;1.90;;
19919;SDS011;10122;50.074;19.920;2023-05-10T14:53:42;3.95;;;2.50;;
19919;SDS011;10122;50.074;19.920;2023-05-10T14:56:08;4.25;;;2.38;;
19919;SDS011;10122;50.074;19.920;2023-05-10T14:58:34;2.63;;;2.10;;
19919;SDS011;10122;50.074;19.920;2023-05-10T15:01:01;2.67;;;2.20;;
19919;SDS011;10122;50.074;19.920;2023-05-10T15:03:27;2.40;;;2.00;;
19919;SDS011;10122;50.074;19.920;2023-05-10T15:05:54;4.82;;;2.33;;